createdAt,value
2023-05-07T00:00:21.338Z,7.70
2023-05-07T00:10:45.020Z,7.52
2023-05-07T00:20:52.317Z,7.41
2023-05-07T00:30:55.970Z,7.25
2023-05-07T00:40:59.537Z,7.04
2023-05-07T00:51:03.348Z,6.87
2023-05-07T01:01:09.203Z,6.74
2023-05-07T01:11:13.739Z,6.76
2023-05-07T01:21:19.361Z,6.62
2023-05-07T01:31:25.780Z,6.41
2023-05-07T01:41:29.840Z,6.24
2023-05-07T01:51:34.912Z,6.17
2023-05-07T02:01:38.679Z,6.05
2023-05-07T02:11:42.388Z,5.89
2023-05-07T02:21:49.580Z,5.75
2023-05-07T02:31:54.268Z,5.64
2023-05-07T02:41:58.067Z,5.65
2023-05-07T02:52:01.849Z,5.83
2023-05-07T03:02:05.806Z,6.05
2023-05-07T03:12:09.570Z,6.35
2023-05-07T03:22:13.428Z,6.61
2023-05-07T03:32:17.277Z,6.89
2023-05-07T03:42:21.473Z,7.23
2023-05-07T03:52:27.258Z,9.89
2023-05-07T04:02:32.735Z,14.57
2023-05-07T04:12:37.238Z,19.71
2023-05-07T04:22:42.962Z,23.91
2023-05-07T04:32:47.388Z,26.98
2023-05-07T04:42:51.514Z,29.32
2023-05-07T04:52:55.595Z,30.46
2023-05-07T05:03:01.146Z,31.48
2023-05-07T05:13:06.466Z,30.87
2023-05-07T05:23:10.297Z,26.33
2023-05-07T05:33:14.550Z,21.16
2023-05-07T05:43:18.839Z,18.71
2023-05-07T05:53:42.633Z,17.28
2023-05-07T06:03:46.828Z,15.55
2023-05-07T06:13:51.978Z,14.81
2023-05-07T06:23:56.169Z,14.84
2023-05-07T06:34:00.687Z,14.91
2023-05-07T06:44:09.776Z,14.86
2023-05-07T06:54:19.853Z,14.74
2023-05-07T07:04:25.534Z,14.16
2023-05-07T07:14:36.257Z,14.15
2023-05-07T07:24:41.014Z,14.17
2023-05-07T07:34:46.412Z,13.92
2023-05-07T07:44:51.409Z,13.86
2023-05-07T07:54:57.686Z,13.39
2023-05-07T08:05:01.681Z,13.84
2023-05-07T08:15:06.128Z,14.07
2023-05-07T08:25:10.585Z,14.22
2023-05-07T08:35:15.591Z,14.21
2023-05-07T08:45:23.548Z,14.41
2023-05-07T08:55:33.182Z,14.27
2023-05-07T09:05:37.264Z,14.39
2023-05-07T09:15:43.515Z,14.88
2023-05-07T09:25:47.996Z,14.70
2023-05-07T09:36:07.794Z,14.52
2023-05-07T09:46:21.534Z,14.90
2023-05-07T09:56:28.083Z,15.07
2023-05-07T10:06:32.871Z,15.06
2023-05-07T10:16:38.989Z,14.55
2023-05-07T10:26:51.663Z,14.74
2023-05-07T10:36:58.045Z,15.23
2023-05-07T10:47:14.329Z,15.57
2023-05-07T10:57:38.803Z,15.79
2023-05-07T11:07:56.773Z,16.14
2023-05-07T11:18:04.456Z,16.10
2023-05-07T11:28:11.753Z,15.72
2023-05-07T11:38:58.554Z,15.32
2023-05-07T11:49:04.586Z,15.65
2023-05-07T11:59:08.404Z,16.39
2023-05-07T12:09:14.394Z,16.34
2023-05-07T12:19:20.046Z,15.66
2023-05-07T12:29:26.610Z,16.30
2023-05-07T12:39:30.324Z,16.63
2023-05-07T12:49:41.306Z,17.30
2023-05-07T12:59:44.900Z,16.97
2023-05-07T13:09:49.693Z,16.45
2023-05-07T13:19:57.894Z,16.18
2023-05-07T13:30:01.490Z,15.93
2023-05-07T13:40:06.131Z,16.34
2023-05-07T13:50:16.397Z,16.46
2023-05-07T14:00:19.987Z,16.82
2023-05-07T14:10:23.765Z,16.90
2023-05-07T14:20:27.575Z,17.10
2023-05-07T14:30:31.271Z,16.83
2023-05-07T14:40:34.877Z,16.44
2023-05-07T14:50:38.581Z,16.82
2023-05-07T15:00:44.976Z,16.73
2023-05-07T15:10:48.980Z,16.57
2023-05-07T15:20:52.618Z,17.22
2023-05-07T15:30:57.381Z,17.00
2023-05-07T15:41:01.046Z,16.85
2023-05-07T15:51:08.034Z,17.15
2023-05-07T16:01:11.720Z,16.53
2023-05-07T16:11:15.553Z,16.54
2023-05-07T16:21:19.173Z,16.75
2023-05-07T16:31:22.873Z,16.97
2023-05-07T16:41:26.979Z,16.67
2023-05-07T16:51:30.608Z,16.32
2023-05-07T17:01:34.540Z,16.26
2023-05-07T17:11:38.335Z,16.22
2023-05-07T17:21:42.019Z,16.28
2023-05-07T17:31:46.578Z,16.48
2023-05-07T17:41:50.628Z,16.33
2023-05-07T17:51:56.236Z,15.85
2023-05-07T18:02:00.004Z,15.34
2023-05-07T18:12:03.784Z,14.85
2023-05-07T18:22:07.586Z,14.28
2023-05-07T18:32:12.283Z,13.77
2023-05-07T18:42:16.091Z,13.39
2023-05-07T18:52:22.236Z,13.09
2023-05-07T19:02:26.280Z,12.89
2023-05-07T19:12:30.276Z,12.63
2023-05-07T19:22:33.981Z,12.28
2023-05-07T19:32:40.526Z,11.76
2023-05-07T19:42:44.341Z,11.21
2023-05-07T19:52:50.451Z,10.68
2023-05-07T20:02:54.365Z,10.66
2023-05-07T20:12:58.238Z,10.50
2023-05-07T20:23:02.101Z,10.26
2023-05-07T20:33:05.920Z,10.07
2023-05-07T20:43:09.774Z,9.98
2023-05-07T20:53:13.379Z,9.97
2023-05-07T21:03:17.655Z,9.85
2023-05-07T21:13:21.945Z,9.79
2023-05-07T21:23:25.721Z,9.75
2023-05-07T21:33:29.410Z,9.66
2023-05-07T21:43:33.242Z,9.46
2023-05-07T21:53:37.029Z,9.36
2023-05-07T22:03:41.281Z,9.21
2023-05-07T22:13:45.306Z,9.21
2023-05-07T22:23:48.941Z,9.00
2023-05-07T22:33:52.518Z,9.07
2023-05-07T22:43:56.468Z,9.09
2023-05-07T22:54:00.213Z,9.13
2023-05-07T23:04:03.901Z,9.11
2023-05-07T23:14:07.521Z,8.98
2023-05-07T23:24:12.729Z,8.80
2023-05-07T23:34:16.553Z,8.50
2023-05-07T23:44:20.218Z,8.42
2023-05-07T23:54:24.597Z,8.33
